Chardonnay Commodore — WCZ7476 — position and weather

sailwx.info

Track history (hours):
 
Tides and Currents Weather Stations Pressure Air Temp Water Temp Dewpoint Dewpoint Depression Visibility Wind Speed Wind Dir Waves Ship Positions

Chardonnay Commodore

Owner: Proescher, Ward H, Alameda, CA. More information available from US FCC via Universal Licensing System and Coast Guard Vessel Documentation Center.

Last reported at 2018-Jan-01 09:41 UTC. Time now 2018-Jan-20 03:45 UTC.
Position N 37°47' W 122°17'.
Warning: this ship's position is 18 days out of date.

Length 24 m; draft 1.8 m.

Type: Passenger vessel. MMSI: 367437890.

Date/timePositionNaut miles runAvg speedWind from/ knotsBaromVisibWave heightAir tempDewpointWater temp
2018-Jan-01 09:41N 37°47' W 122°17'1 5.4
2018-Jan-01 09:31N 37°48' W 122°18'4 3.9
2018-Jan-01 08:30N 37°47' W 122°23'1 2.1
2018-Jan-01 08:00N 37°48' W 122°23'1 2.0
2018-Jan-01 07:30N 37°49' W 122°24'1 2.7
2018-Jan-01 07:00N 37°49' W 122°26'4 3.5
2018-Jan-01 06:00N 37°52' W 122°27'3 6.5
2018-Jan-01 05:30N 37°50' W 122°24'3 5.2
2018-Jan-01 05:00N 37°48' W 122°21'2 2.1
2018-Jan-01 04:00N 37°47' W 122°23'1 1.9
2018-Jan-01 03:30N 37°47' W 122°22'4 7.7
2018-Jan-01 03:00N 37°48' W 122°17'0 0.1
2017-Dec-31 21:00N 37°47' W 122°17'  
2017-Dec-22 22:14N 37°47' W 122°17'0 0.6
2017-Dec-22 22:00N 37°48' W 122°17'0 0.0
2017-Dec-22 21:30N 37°48' W 122°17'  
Track history (hours):
 
Tides and Currents Weather Stations Pressure Air Temp Water Temp Dewpoint Dewpoint Depression Visibility Wind Speed Wind Dir Waves Ship Positions

Chardonnay Commodore

Owner: Proescher, Ward H, Alameda, CA. More information available from US FCC via Universal Licensing System and Coast Guard Vessel Documentation Center.

Last reported at 2018-Jan-01 09:41 UTC. Time now 2018-Jan-20 03:45 UTC.
Position N 37°47' W 122°17'.
Warning: this ship's position is 18 days out of date.

Length 24 m; draft 1.8 m.

Type: Passenger vessel. MMSI: 367437890.

Date/timePositionNaut miles runAvg speedWind from/ knotsBaromVisibWave heightAir tempDewpointWater temp
2018-Jan-01 09:41N 37°47' W 122°17'1 5.4
2018-Jan-01 09:31N 37°48' W 122°18'4 3.9
2018-Jan-01 08:30N 37°47' W 122°23'1 2.1
2018-Jan-01 08:00N 37°48' W 122°23'1 2.0
2018-Jan-01 07:30N 37°49' W 122°24'1 2.7
2018-Jan-01 07:00N 37°49' W 122°26'4 3.5
2018-Jan-01 06:00N 37°52' W 122°27'3 6.5
2018-Jan-01 05:30N 37°50' W 122°24'3 5.2
2018-Jan-01 05:00N 37°48' W 122°21'2 2.1
2018-Jan-01 04:00N 37°47' W 122°23'1 1.9
2018-Jan-01 03:30N 37°47' W 122°22'4 7.7
2018-Jan-01 03:00N 37°48' W 122°17'0 0.1
2017-Dec-31 21:00N 37°47' W 122°17'  
2017-Dec-22 22:14N 37°47' W 122°17'0 0.6
2017-Dec-22 22:00N 37°48' W 122°17'0 0.0
2017-Dec-22 21:30N 37°48' W 122°17'  

Dump ship's entire track history